Terminal Aerodrome Forecast
Issued by NWS

Home | Current Version | Previous Version | Text Only | Print | Product List | Glossary On
Versions: 1 2 3 4 5 6 7 8 9 10 11 12 13 14 15 16 17 18
000
FTUS43 KSGF 301721
TAFJLN
TAF
KJLN 301721Z 3018/0118 22012G18KT P6SM BKN018
     FM302000 26012G18KT P6SM BKN050
     FM010100 27008KT P6SM FEW250
     FM011400 28008KT P6SM SCT050=

USA.gov is the U.S. government's official web portal to all federal, state and local government web resources and services.